Time;durP1;ratioP1;P1;durP2;ratioP2;P2;SDS_P1;SDS_P2;PMS_P1;PMS_P2;Temp;Humidity;BMP_temperature;BMP_pressure;BME280_temperature;BME280_humidity;BME280_pressure;Samples;Min_cycle;Max_cycle;Signal;HPM_P1;HPM_P2
2023/07/28 00:00:17;;;;;;;35.38;15.98;;;;;;;;;;4956295;28;20062;-84
2023/07/28 00:02:49;;;;;;;31.60;15.85;;;;;;;;;;4973334;28;20047;-85
2023/07/28 00:05:19;;;;;;;33.92;15.70;;;;;;;;;;4973335;28;20061;-86
2023/07/28 00:07:49;;;;;;;39.05;17.83;;;;;;;;;;4958880;28;20386;-83
2023/07/28 00:10:19;;;;;;;32.78;16.10;;;;;;;;;;4972422;28;20050;-85
2023/07/28 00:12:50;;;;;;;37.55;16.25;;;;;;;;;;4975750;28;20054;-87
2023/07/28 00:15:20;;;;;;;32.72;16.13;;;;;;;;;;4974052;28;20436;-85
2023/07/28 00:17:50;;;;;;;37.38;16.40;;;;;;;;;;4974442;28;20047;-85
2023/07/28 00:20:20;;;;;;;37.38;15.68;;;;;;;;;;4974097;28;20042;-84
2023/07/28 00:22:50;;;;;;;39.13;16.75;;;;;;;;;;4982141;28;20057;-86
2023/07/28 00:25:21;;;;;;;37.25;16.63;;;;;;;;;;4957247;28;20047;-86
2023/07/28 00:27:51;;;;;;;37.72;17.48;;;;;;;;;;4957582;28;20062;-84
2023/07/28 00:30:23;;;;;;;39.83;18.08;;;;;;;;;;4974330;28;20042;-85
2023/07/28 00:32:53;;;;;;;38.65;17.17;;;;;;;;;;4970278;28;20574;-85
2023/07/28 00:35:23;;;;;;;40.03;18.33;;;;;;;;;;4955987;28;20055;-86
2023/07/28 00:37:53;;;;;;;36.42;17.42;;;;;;;;;;4957708;28;20054;-87
2023/07/28 00:40:23;;;;;;;37.08;16.08;;;;;;;;;;4936081;28;20051;-85
2023/07/28 00:42:56;;;;;;;43.67;18.38;;;;;;;;;;4955921;28;20053;-86
2023/07/28 00:45:27;;;;;;;37.78;17.35;;;;;;;;;;4940865;28;20046;-84
2023/07/28 00:48:00;;;;;;;39.85;17.55;;;;;;;;;;4956912;28;20063;-84
2023/07/28 00:50:30;;;;;;;39.63;17.77;;;;;;;;;;4960744;28;20043;-85
2023/07/28 00:53:01;;;;;;;39.40;18.83;;;;;;;;;;4957536;28;20046;-84
2023/07/28 00:55:32;;;;;;;36.95;17.63;;;;;;;;;;4947083;28;20061;-85
2023/07/28 00:58:03;;;;;;;34.97;16.77;;;;;;;;;;4954689;28;20052;-84
2023/07/28 01:00:33;;;;;;;38.03;17.20;;;;;;;;;;4972761;28;20043;-87
2023/07/28 01:03:04;;;;;;;37.97;17.33;;;;;;;;;;4954356;28;20043;-84
2023/07/28 01:05:42;;;;;;;38.97;17.55;;;;;;;;;;4954776;28;20551;-86
2023/07/28 01:08:29;;;;;;;41.85;17.83;;;;;;;;;;4970966;28;20054;-84
2023/07/28 01:11:01;;;;;;;43.13;17.95;;;;;;;;;;4954555;28;20043;-84
2023/07/28 01:13:31;;;;;;;40.58;16.67;;;;;;;;;;4954527;28;20077;-86
2023/07/28 01:16:02;;;;;;;44.88;18.55;;;;;;;;;;4972645;28;20082;-85
2023/07/28 01:18:34;;;;;;;42.65;19.23;;;;;;;;;;4955935;28;20043;-85
2023/07/28 01:21:08;;;;;;;42.67;18.23;;;;;;;;;;4954113;28;20054;-84
2023/07/28 01:23:50;;;;;;;38.72;18.50;;;;;;;;;;4972878;28;20046;-85
2023/07/28 01:26:37;;;;;;;43.55;18.90;;;;;;;;;;4967949;28;20613;-84
2023/07/28 01:29:10;;;;;;;34.90;17.25;;;;;;;;;;4954192;28;20508;-85
2023/07/28 01:31:40;;;;;;;40.42;17.30;;;;;;;;;;4971154;28;20043;-84
2023/07/28 01:34:11;;;;;;;42.33;18.60;;;;;;;;;;4970524;28;20524;-84
2023/07/28 01:36:42;;;;;;;41.35;18.50;;;;;;;;;;4938861;28;20070;-85
2023/07/28 01:39:12;;;;;;;39.78;18.40;;;;;;;;;;4972590;28;20070;-84
2023/07/28 01:41:44;;;;;;;39.38;18.88;;;;;;;;;;4972399;28;20050;-84
2023/07/28 01:44:14;;;;;;;41.65;17.83;;;;;;;;;;4972731;28;20536;-84
2023/07/28 01:46:45;;;;;;;42.83;18.65;;;;;;;;;;4955212;28;20066;-84
2023/07/28 01:49:15;;;;;;;41.97;17.63;;;;;;;;;;4954544;28;20131;-84
2023/07/28 01:51:45;;;;;;;43.42;19.30;;;;;;;;;;4954681;28;20050;-85
2023/07/28 01:54:15;;;;;;;37.55;16.92;;;;;;;;;;4971540;28;20050;-84
2023/07/28 01:56:46;;;;;;;37.10;17.42;;;;;;;;;;4958261;28;20509;-84
2023/07/28 01:59:18;;;;;;;40.22;18.92;;;;;;;;;;4957929;28;20055;-83
2023/07/28 02:01:48;;;;;;;38.15;17.75;;;;;;;;;;4957849;28;20054;-83
2023/07/28 02:04:19;;;;;;;40.70;18.10;;;;;;;;;;4976081;28;20050;-86
2023/07/28 02:06:49;;;;;;;37.80;18.27;;;;;;;;;;4959178;28;20058;-84
2023/07/28 02:09:20;;;;;;;38.03;17.60;;;;;;;;;;4957917;28;20055;-84
2023/07/28 02:11:51;;;;;;;35.97;17.83;;;;;;;;;;4957764;28;20064;-86
2023/07/28 02:14:21;;;;;;;36.97;17.23;;;;;;;;;;4957603;28;20061;-86
2023/07/28 02:16:51;;;;;;;36.70;16.85;;;;;;;;;;4957890;28;20062;-86
2023/07/28 02:19:22;;;;;;;33.63;17.42;;;;;;;;;;4941533;28;20062;-86
2023/07/28 02:21:52;;;;;;;37.58;17.27;;;;;;;;;;4958009;28;20178;-84
2023/07/28 02:24:22;;;;;;;35.85;16.52;;;;;;;;;;4973353;28;20420;-85
2023/07/28 02:26:54;;;;;;;44.38;17.20;;;;;;;;;;4975576;28;20046;-85
2023/07/28 02:29:27;;;;;;;38.55;17.98;;;;;;;;;;4957327;28;20057;-84
2023/07/28 02:31:57;;;;;;;39.47;17.83;;;;;;;;;;4975868;28;20047;-86
2023/07/28 02:34:28;;;;;;;39.97;17.20;;;;;;;;;;4975332;28;20054;-84
2023/07/28 02:36:58;;;;;;;38.03;17.35;;;;;;;;;;4941904;28;20508;-86
2023/07/28 02:39:28;;;;;;;32.67;16.27;;;;;;;;;;4956903;28;20059;-85
2023/07/28 02:41:59;;;;;;;38.72;16.02;;;;;;;;;;4958505;28;20405;-85
2023/07/28 02:44:29;;;;;;;37.40;16.48;;;;;;;;;;4975484;28;20046;-85
2023/07/28 02:47:00;;;;;;;33.63;16.88;;;;;;;;;;4958206;28;20054;-86
2023/07/28 02:49:30;;;;;;;33.35;16.23;;;;;;;;;;4941455;28;20099;-84
2023/07/28 02:52:00;;;;;;;34.72;15.45;;;;;;;;;;4957244;28;20051;-84
2023/07/28 02:54:31;;;;;;;36.83;17.58;;;;;;;;;;4941224;28;20409;-84
2023/07/28 02:57:01;;;;;;;35.67;16.67;;;;;;;;;;4957600;28;20086;-84
2023/07/28 02:59:32;;;;;;;37.47;17.52;;;;;;;;;;4957663;28;20050;-84
2023/07/28 03:02:02;;;;;;;34.45;15.70;;;;;;;;;;4975292;28;20061;-85
2023/07/28 03:04:33;;;;;;;38.38;15.52;;;;;;;;;;4958868;28;20051;-85
2023/07/28 03:07:18;;;;;;;35.03;15.95;;;;;;;;;;4965739;28;20062;-84
2023/07/28 03:09:54;;;;;;;34.58;17.33;;;;;;;;;;4976343;28;20039;-85
2023/07/28 03:12:25;;;;;;;36.60;16.17;;;;;;;;;;4987125;28;20074;-84
2023/07/28 03:14:55;;;;;;;37.22;16.58;;;;;;;;;;4943120;28;20054;-84
2023/07/28 03:17:25;;;;;;;38.00;16.58;;;;;;;;;;4958695;28;20053;-83
2023/07/28 03:19:58;;;;;;;35.55;16.13;;;;;;;;;;4958329;28;20055;-84
2023/07/28 03:22:30;;;;;;;38.22;18.23;;;;;;;;;;4974658;28;20073;-88
2023/07/28 03:25:00;;;;;;;39.60;17.83;;;;;;;;;;4958401;28;20058;-85
2023/07/28 03:27:30;;;;;;;41.13;19.88;;;;;;;;;;4977026;28;20393;-84
2023/07/28 03:30:02;;;;;;;41.78;18.63;;;;;;;;;;4958908;28;20062;-88
2023/07/28 03:32:33;;;;;;;42.72;19.02;;;;;;;;;;4976279;28;20038;-85
2023/07/28 03:35:05;;;;;;;41.38;17.25;;;;;;;;;;4976635;28;20054;-85
2023/07/28 03:37:39;;;;;;;39.03;18.13;;;;;;;;;;4958520;28;20051;-84
2023/07/28 03:40:10;;;;;;;37.17;17.38;;;;;;;;;;4958429;28;20055;-88
2023/07/28 03:42:51;;;;;;;37.35;17.52;;;;;;;;;;4958252;28;20062;-87
2023/07/28 03:45:22;;;;;;;43.22;17.48;;;;;;;;;;4976215;28;20115;-87
2023/07/28 03:47:52;;;;;;;40.97;17.80;;;;;;;;;;4958312;28;20059;-85
2023/07/28 03:50:24;;;;;;;49.40;18.65;;;;;;;;;;4976270;28;20049;-85
2023/07/28 03:52:56;;;;;;;37.95;17.75;;;;;;;;;;4958568;28;20046;-83
2023/07/28 03:55:26;;;;;;;37.90;17.23;;;;;;;;;;4976193;28;20059;-85
2023/07/28 03:57:57;;;;;;;40.25;17.88;;;;;;;;;;4973771;28;20046;-86
2023/07/28 04:00:26;;;;;;;41.40;17.83;;;;;;;;;;4957543;28;20057;-84
2023/07/28 04:02:58;;;;;;;40.58;19.40;;;;;;;;;;4975835;28;20058;-83
2023/07/28 04:05:28;;;;;;;41.42;18.30;;;;;;;;;;4956354;28;20066;-88
2023/07/28 04:08:00;;;;;;;;;;;;;;;;;;4974070;28;20067;-84
2023/07/28 04:10:30;;;;;;;41.72;18.67;;;;;;;;;;4989683;28;20340;-84
2023/07/28 04:13:00;;;;;;;39.78;19.10;;;;;;;;;;4975247;28;20077;-86
2023/07/28 04:15:30;;;;;;;41.67;18.23;;;;;;;;;;4958510;28;20058;-84
2023/07/28 04:18:00;;;;;;;38.97;17.88;;;;;;;;;;4957051;28;20062;-83
2023/07/28 04:20:31;;;;;;;38.20;18.73;;;;;;;;;;4975301;28;20051;-84
2023/07/28 04:23:01;;;;;;;47.38;19.40;;;;;;;;;;4973725;28;20051;-85
2023/07/28 04:25:37;;;;;;;35.63;17.48;;;;;;;;;;4975246;28;20039;-85
2023/07/28 04:28:08;;;;;;;40.53;17.65;;;;;;;;;;4957122;28;20061;-84
2023/07/28 04:30:38;;;;;;;37.15;16.58;;;;;;;;;;4956959;28;20050;-88
2023/07/28 04:33:15;;;;;;;35.90;18.25;;;;;;;;;;4957306;28;20394;-87
2023/07/28 04:35:47;;;;;;;35.17;17.08;;;;;;;;;;4975038;28;20485;-85
2023/07/28 04:38:24;;;;;;;36.17;18.05;;;;;;;;;;4975080;28;20043;-87
2023/07/28 04:40:59;;;;;;;35.40;17.13;;;;;;;;;;4956936;28;20053;-85
2023/07/28 04:43:47;;;;;;;38.33;17.95;;;;;;;;;;4957185;28;20047;-84
2023/07/28 04:46:18;;;;;;;39.45;17.63;;;;;;;;;;4957000;28;20055;-84
2023/07/28 04:48:55;;;;;;;36.00;16.80;;;;;;;;;;4972608;28;20051;-84
2023/07/28 04:51:51;;;;;;;35.90;16.02;;;;;;;;;;4944493;28;20061;-85
2023/07/28 04:54:38;;;;;;;35.03;15.32;;;;;;;;;;4975329;28;20081;-84
2023/07/28 04:57:09;;;;;;;37.08;16.13;;;;;;;;;;4974938;28;20034;-85
2023/07/28 04:59:43;;;;;;;43.47;17.73;;;;;;;;;;4974918;28;20042;-88
2023/07/28 05:02:13;;;;;;;39.42;17.25;;;;;;;;;;4956691;28;20050;-85
2023/07/28 05:04:43;;;;;;;39.10;18.20;;;;;;;;;;4956350;28;20051;-86
2023/07/28 05:07:14;;;;;;;33.30;16.45;;;;;;;;;;4974238;28;20045;-85
2023/07/28 05:09:44;;;;;;;36.78;17.85;;;;;;;;;;4956825;28;20493;-87
2023/07/28 05:12:15;;;;;;;39.25;17.85;;;;;;;;;;4972704;28;20389;-85
2023/07/28 05:14:48;;;;;;;35.38;15.80;;;;;;;;;;4956939;28;20058;-83
2023/07/28 05:17:21;;;;;;;41.58;16.17;;;;;;;;;;4957167;28;20053;-85
2023/07/28 05:20:07;;;;;;;33.40;14.07;;;;;;;;;;4957183;28;20046;-85
2023/07/28 05:22:48;;;;;;;28.45;15.20;;;;;;;;;;4956466;28;20050;-85
2023/07/28 05:25:18;;;;;;;31.58;14.25;;;;;;;;;;4972166;28;20070;-85
2023/07/28 05:27:49;;;;;;;31.10;14.73;;;;;;;;;;4956262;28;20043;-88
2023/07/28 05:30:19;;;;;;;30.92;14.95;;;;;;;;;;4955893;28;20055;-85
2023/07/28 05:32:54;;;;;;;29.65;15.10;;;;;;;;;;4956813;28;20055;-87
2023/07/28 05:35:30;;;;;;;33.72;14.65;;;;;;;;;;4956576;28;20089;-86
2023/07/28 05:38:00;;;;;;;29.45;14.50;;;;;;;;;;4956227;28;20061;-87
2023/07/28 05:40:31;;;;;;;29.52;14.07;;;;;;;;;;4972929;28;20501;-86
2023/07/28 05:43:02;;;;;;;26.50;13.77;;;;;;;;;;4974518;28;20493;-87
2023/07/28 05:45:33;;;;;;;32.45;14.98;;;;;;;;;;4956464;28;20051;-87
2023/07/28 05:48:05;;;;;;;32.13;15.38;;;;;;;;;;4956172;28;20489;-86
2023/07/28 05:50:39;;;;;;;30.95;14.13;;;;;;;;;;4974925;28;20478;-85
2023/07/28 05:53:09;;;;;;;29.67;15.05;;;;;;;;;;4974802;28;20047;-87
2023/07/28 05:55:40;;;;;;;31.63;14.35;;;;;;;;;;4955792;28;20422;-84
2023/07/28 05:58:10;;;;;;;29.80;14.45;;;;;;;;;;4956295;28;20058;-85
2023/07/28 06:00:42;;;;;;;30.23;14.50;;;;;;;;;;4972223;28;20055;-84
2023/07/28 06:03:30;;;;;;;30.00;14.13;;;;;;;;;;4969371;28;20054;-86
2023/07/28 06:06:08;;;;;;;25.40;13.95;;;;;;;;;;4956408;28;20058;-84
2023/07/28 06:08:38;;;;;;;29.60;12.25;;;;;;;;;;4973670;28;20047;-85
2023/07/28 06:11:08;;;;;;;25.13;12.95;;;;;;;;;;4955630;28;20055;-85
2023/07/28 06:13:39;;;;;;;30.58;12.13;;;;;;;;;;4955922;28;20508;-84
2023/07/28 06:16:09;;;;;;;26.65;13.38;;;;;;;;;;4974666;28;20047;-84
2023/07/28 06:18:39;;;;;;;27.95;12.50;;;;;;;;;;4956038;28;20058;-84
2023/07/28 06:21:21;;;;;;;23.20;10.18;;;;;;;;;;4957011;28;20055;-84
2023/07/28 06:23:51;;;;;;;22.20;10.63;;;;;;;;;;4972726;28;20043;-84
2023/07/28 06:26:22;;;;;;;26.05;11.80;;;;;;;;;;4956676;28;20055;-85
2023/07/28 06:28:52;;;;;;;22.83;11.10;;;;;;;;;;4972115;28;20158;-85
2023/07/28 06:31:22;;;;;;;24.80;10.73;;;;;;;;;;4955962;28;20065;-84
2023/07/28 06:33:52;;;;;;;22.70;11.20;;;;;;;;;;4956000;28;20059;-83
2023/07/28 06:36:25;;;;;;;27.55;12.30;;;;;;;;;;4973887;28;20059;-84
2023/07/28 06:38:58;;;;;;;23.23;10.70;;;;;;;;;;4971946;28;20047;-84
2023/07/28 06:41:28;;;;;;;28.38;11.27;;;;;;;;;;4958028;28;20054;-84
2023/07/28 06:44:02;;;;;;;27.70;11.27;;;;;;;;;;4960694;28;20058;-86
2023/07/28 06:46:33;;;;;;;22.00;10.82;;;;;;;;;;4977497;28;20054;-87
2023/07/28 06:49:04;;;;;;;27.58;11.70;;;;;;;;;;4943808;28;20061;-84
2023/07/28 06:51:35;;;;;;;26.92;10.48;;;;;;;;;;4959533;28;20456;-86
2023/07/28 06:54:11;;;;;;;18.98;10.18;;;;;;;;;;4977234;28;20035;-83
2023/07/28 06:56:42;;;;;;;23.25;11.32;;;;;;;;;;4991557;28;20051;-84
2023/07/28 06:59:13;;;;;;;19.90;9.85;;;;;;;;;;4977541;28;20043;-85
2023/07/28 07:01:49;;;;;;;22.35;10.40;;;;;;;;;;4991281;28;20050;-84
2023/07/28 07:04:19;;;;;;;22.08;10.82;;;;;;;;;;4959533;28;20473;-85
2023/07/28 07:06:50;;;;;;;24.35;10.15;;;;;;;;;;4977394;28;20047;-84
2023/07/28 07:09:21;;;;;;;20.83;10.18;;;;;;;;;;4975877;28;20043;-84
2023/07/28 07:11:52;;;;;;;19.15;9.18;;;;;;;;;;4958851;28;20065;-84
2023/07/28 07:14:24;;;;;;;;;;;;;;;;;;4959250;28;20409;-88
2023/07/28 07:16:54;;;;;;;21.88;9.55;;;;;;;;;;4976607;28;19925;-83
2023/07/28 07:19:25;;;;;;;21.00;9.55;;;;;;;;;;4976693;28;20472;-86
2023/07/28 07:21:55;;;;;;;18.05;8.88;;;;;;;;;;4976823;28;20060;-85
2023/07/28 07:24:25;;;;;;;17.52;8.30;;;;;;;;;;4976557;28;20397;-85
2023/07/28 07:26:55;;;;;;;22.95;9.95;;;;;;;;;;4976763;28;20046;-86
2023/07/28 07:29:25;;;;;;;18.88;8.85;;;;;;;;;;4976496;28;20049;-83
2023/07/28 07:31:56;;;;;;;22.38;9.40;;;;;;;;;;4990123;28;20078;-84
2023/07/28 07:34:27;;;;;;;22.60;8.82;;;;;;;;;;4976442;28;20494;-84
2023/07/28 07:36:57;;;;;;;21.02;10.15;;;;;;;;;;4958304;28;20398;-86
2023/07/28 07:39:27;;;;;;;26.35;9.48;;;;;;;;;;4974971;28;20043;-84
2023/07/28 07:41:58;;;;;;;17.33;9.35;;;;;;;;;;4975039;28;20058;-85
2023/07/28 07:44:28;;;;;;;19.52;8.73;;;;;;;;;;4974365;28;20500;-85
2023/07/28 07:47:01;;;;;;;16.60;8.13;;;;;;;;;;4976356;28;20051;-84
2023/07/28 07:49:31;;;;;;;19.98;8.30;;;;;;;;;;4975076;28;20039;-84
2023/07/28 07:52:02;;;;;;;20.08;8.18;;;;;;;;;;4974435;28;20054;-85
2023/07/28 07:54:34;;;;;;;20.02;8.75;;;;;;;;;;4975876;28;20039;-86
2023/07/28 07:57:04;;;;;;;16.75;7.97;;;;;;;;;;4959432;28;20043;-84
2023/07/28 07:59:34;;;;;;;16.15;8.35;;;;;;;;;;4958369;28;20047;-86
2023/07/28 08:02:05;;;;;;;15.90;7.57;;;;;;;;;;4957876;28;20051;-84
2023/07/28 08:04:38;;;;;;;26.52;8.15;;;;;;;;;;4975840;28;20039;-84
2023/07/28 08:07:08;;;;;;;19.98;9.02;;;;;;;;;;4975609;28;20043;-84
2023/07/28 08:09:38;;;;;;;15.63;8.90;;;;;;;;;;4976024;28;20390;-83
2023/07/28 08:12:09;;;;;;;14.88;7.25;;;;;;;;;;4975926;28;20046;-88
2023/07/28 08:14:39;;;;;;;16.55;8.15;;;;;;;;;;4975263;28;20049;-83
2023/07/28 08:17:10;;;;;;;15.27;7.32;;;;;;;;;;4975577;28;20054;-84
2023/07/28 08:19:40;;;;;;;17.92;7.82;;;;;;;;;;4973585;28;20059;-88
2023/07/28 08:22:11;;;;;;;21.75;8.48;;;;;;;;;;4975798;28;20413;-84
2023/07/28 08:24:42;;;;;;;15.00;7.38;;;;;;;;;;4975465;28;20471;-87
2023/07/28 08:27:12;;;;;;;16.50;8.07;;;;;;;;;;4957583;28;20055;-85
2023/07/28 08:29:42;;;;;;;14.57;7.40;;;;;;;;;;4957943;28;20069;-84
2023/07/28 08:32:12;;;;;;;18.25;7.75;;;;;;;;;;4975565;28;20051;-84
2023/07/28 08:34:43;;;;;;;18.23;8.57;;;;;;;;;;4975351;28;20046;-85
2023/07/28 08:37:14;;;;;;;23.10;9.25;;;;;;;;;;4956960;28;20058;-84
2023/07/28 08:39:44;;;;;;;20.10;8.55;;;;;;;;;;4957993;28;20119;-84
2023/07/28 08:42:14;;;;;;;17.65;7.97;;;;;;;;;;4973320;28;20067;-86
2023/07/28 08:44:47;;;;;;;15.60;7.60;;;;;;;;;;4975165;28;20051;-84
2023/07/28 08:47:17;;;;;;;19.10;8.50;;;;;;;;;;4958602;28;20046;-84
2023/07/28 08:49:47;;;;;;;15.23;7.18;;;;;;;;;;4973077;28;20050;-88
2023/07/28 08:52:18;;;;;;;20.15;8.95;;;;;;;;;;4975410;28;20373;-84
2023/07/28 08:54:48;;;;;;;21.05;9.95;;;;;;;;;;4974856;28;20401;-82
2023/07/28 08:57:19;;;;;;;25.33;10.45;;;;;;;;;;4974549;28;20053;-82
2023/07/28 08:59:51;;;;;;;23.23;11.52;;;;;;;;;;4974898;28;20050;-84
2023/07/28 09:02:23;;;;;;;25.23;10.63;;;;;;;;;;4956904;28;20054;-84
2023/07/28 09:04:54;;;;;;;25.90;10.70;;;;;;;;;;4973623;28;20051;-84
2023/07/28 09:07:24;;;;;;;19.33;8.52;;;;;;;;;;4975022;28;20500;-84
2023/07/28 09:10:00;;;;;;;20.33;9.70;;;;;;;;;;4974779;28;20477;-82
2023/07/28 09:12:34;;;;;;;19.73;8.18;;;;;;;;;;4957662;28;20039;-84
2023/07/28 09:15:06;;;;;;;19.33;8.65;;;;;;;;;;4974499;28;20052;-84
2023/07/28 09:17:45;;;;;;;20.92;9.57;;;;;;;;;;4973783;28;20047;-84
2023/07/28 09:20:17;;;;;;;22.60;9.15;;;;;;;;;;4974406;28;20046;-85
2023/07/28 09:22:52;;;;;;;22.30;10.25;;;;;;;;;;4974652;28;20046;-88
2023/07/28 09:25:22;;;;;;;;;;;;;;;;;;4975091;28;20049;-86
2023/07/28 09:27:53;;;;;;;25.20;10.10;;;;;;;;;;4974199;28;19922;-84
2023/07/28 09:30:25;;;;;;;26.05;10.00;;;;;;;;;;4974821;28;20046;-84
2023/07/28 09:32:56;;;;;;;24.30;10.73;;;;;;;;;;4975162;28;20050;-86
2023/07/28 09:35:26;;;;;;;21.85;11.63;;;;;;;;;;4974808;28;20385;-84
2023/07/28 09:37:57;;;;;;;22.08;9.48;;;;;;;;;;4956333;28;20505;-83
2023/07/28 09:40:30;;;;;;;15.75;7.30;;;;;;;;;;4973270;28;20054;-84
2023/07/28 09:43:00;;;;;;;17.05;6.80;;;;;;;;;;4974390;28;20049;-84
2023/07/28 09:45:31;;;;;;;16.60;6.97;;;;;;;;;;4974658;28;20466;-85
2023/07/28 09:48:12;;;;;;;13.95;7.15;;;;;;;;;;4974582;28;20054;-83
2023/07/28 09:50:44;;;;;;;14.10;7.65;;;;;;;;;;4974138;28;20043;-86
2023/07/28 09:53:15;;;;;;;16.73;7.70;;;;;;;;;;4974845;28;20051;-83
2023/07/28 09:55:47;;;;;;;20.70;9.88;;;;;;;;;;4973813;28;20043;-84
2023/07/28 09:58:20;;;;;;;14.57;7.47;;;;;;;;;;4974339;28;20046;-85
2023/07/28 10:00:51;;;;;;;16.05;7.72;;;;;;;;;;4974030;28;20047;-83
2023/07/28 10:03:21;;;;;;;14.93;7.55;;;;;;;;;;4974335;28;20049;-83
2023/07/28 10:05:52;;;;;;;12.35;6.82;;;;;;;;;;4957483;28;20039;-85
2023/07/28 10:08:23;;;;;;;16.60;7.88;;;;;;;;;;4974166;28;20043;-85
2023/07/28 10:10:56;;;;;;;14.60;7.28;;;;;;;;;;4973760;28;20035;-84
2023/07/28 10:13:28;;;;;;;16.83;7.65;;;;;;;;;;4973728;28;20054;-85
2023/07/28 10:16:02;;;;;;;15.95;7.65;;;;;;;;;;4975661;28;20427;-88
2023/07/28 10:18:33;;;;;;;14.88;7.20;;;;;;;;;;4978230;28;20486;-83
2023/07/28 10:21:12;;;;;;;12.80;6.93;;;;;;;;;;4977607;28;20047;-87
2023/07/28 10:23:44;;;;;;;14.38;7.57;;;;;;;;;;4977339;28;20046;-87
2023/07/28 10:26:38;;;;;;;15.77;8.90;;;;;;;;;;4965588;28;20402;-84
2023/07/28 10:29:15;;;;;;;15.73;7.18;;;;;;;;;;4958138;29;20054;-84
2023/07/28 10:31:57;;;;;;;13.27;7.32;;;;;;;;;;4957156;29;20074;-83
2023/07/28 10:34:29;;;;;;;17.08;8.00;;;;;;;;;;4956064;29;20051;-83
2023/07/28 10:37:00;;;;;;;16.20;7.47;;;;;;;;;;4957912;29;20055;-85
2023/07/28 10:39:32;;;;;;;13.40;6.55;;;;;;;;;;4957217;29;20043;-84
2023/07/28 10:42:09;;;;;;;18.33;7.13;;;;;;;;;;4957325;29;20050;-86
2023/07/28 10:44:39;;;;;;;13.98;6.85;;;;;;;;;;4955813;29;20524;-84
2023/07/28 10:47:12;;;;;;;14.57;7.30;;;;;;;;;;4956219;28;20047;-85
2023/07/28 10:49:42;;;;;;;;;;;;;;;;;;4958344;29;20147;-84
2023/07/28 10:52:12;;;;;;;14.00;7.72;;;;;;;;;;4958675;28;19922;-85
2023/07/28 10:54:46;;;;;;;14.60;7.72;;;;;;;;;;4976805;28;20389;-84
2023/07/28 10:57:16;;;;;;;16.23;8.60;;;;;;;;;;4975891;28;20082;-84
2023/07/28 10:59:46;;;;;;;16.42;8.60;;;;;;;;;;4975268;28;20050;-84
2023/07/28 11:02:17;;;;;;;26.50;9.00;;;;;;;;;;4958187;28;20527;-86
2023/07/28 11:04:49;;;;;;;19.95;9.20;;;;;;;;;;4975907;28;20046;-86
2023/07/28 11:07:20;;;;;;;17.60;8.18;;;;;;;;;;4976757;28;20035;-84
2023/07/28 11:09:51;;;;;;;22.67;11.38;;;;;;;;;;4975870;28;20042;-85
2023/07/28 11:12:21;;;;;;;22.35;10.52;;;;;;;;;;4968356;28;20059;-86
2023/07/28 11:14:51;;;;;;;27.75;13.60;;;;;;;;;;4959596;29;20435;-85
2023/07/28 11:17:22;;;;;;;30.02;13.63;;;;;;;;;;4959181;29;20043;-86
2023/07/28 11:19:52;;;;;;;28.75;14.27;;;;;;;;;;4958567;29;20055;-85
2023/07/28 11:22:22;;;;;;;39.35;14.57;;;;;;;;;;4957585;29;20046;-86
2023/07/28 11:24:52;;;;;;;33.55;15.55;;;;;;;;;;4959769;29;20043;-86
2023/07/28 11:27:47;;;;;;;32.75;17.90;;;;;;;;;;4958292;28;20393;-86
2023/07/28 11:30:31;;;;;;;36.33;15.75;;;;;;;;;;4942332;28;20067;-85
2023/07/28 11:33:14;;;;;;;36.80;16.63;;;;;;;;;;4955508;28;20043;-86
2023/07/28 11:36:12;;;;;;;35.38;16.60;;;;;;;;;;4957218;28;20489;-87
2023/07/28 11:38:42;;;;;;;37.47;17.95;;;;;;;;;;4955839;28;20030;-86
2023/07/28 11:41:13;;;;;;;38.42;18.30;;;;;;;;;;4958393;28;20050;-85
2023/07/28 11:43:51;;;;;;;42.50;19.15;;;;;;;;;;4970889;28;20055;-86
2023/07/28 11:46:40;;;;;;;35.63;18.08;;;;;;;;;;4938898;29;20059;-85
2023/07/28 11:49:24;;;;;;;35.75;18.35;;;;;;;;;;4971825;28;20035;-84
2023/07/28 11:51:58;;;;;;;35.53;17.10;;;;;;;;;;4971939;28;20039;-84
2023/07/28 11:54:29;;;;;;;38.50;16.27;;;;;;;;;;4975012;28;20516;-83
2023/07/28 11:57:00;;;;;;;27.48;15.35;;;;;;;;;;4970015;28;20133;-83
2023/07/28 11:59:30;;;;;;;31.52;14.50;;;;;;;;;;4973129;28;20051;-83
2023/07/28 12:02:07;;;;;;;27.83;13.57;;;;;;;;;;4958661;28;20051;-83
2023/07/28 12:04:43;;;;;;;26.63;13.25;;;;;;;;;;4958803;28;20065;-83
2023/07/28 12:07:17;;;;;;;25.40;13.38;;;;;;;;;;4958657;28;20031;-84
2023/07/28 12:09:54;;;;;;;29.20;15.32;;;;;;;;;;4953988;28;20046;-84
2023/07/28 12:12:31;;;;;;;26.33;13.73;;;;;;;;;;4975840;28;20054;-84
2023/07/28 12:15:28;;;;;;;23.92;12.23;;;;;;;;;;4975667;28;20050;-84
2023/07/28 12:18:14;;;;;;;25.05;12.90;;;;;;;;;;4957594;28;20058;-85
2023/07/28 12:20:50;;;;;;;27.35;13.57;;;;;;;;;;4959317;28;20486;-86
2023/07/28 12:23:22;;;;;;;27.65;13.35;;;;;;;;;;4975757;28;20046;-84
2023/07/28 12:25:58;;;;;;;27.00;14.30;;;;;;;;;;4975543;28;20070;-85
2023/07/28 12:28:28;;;;;;;;;;;;;;;;;;4975915;28;20497;-85
2023/07/28 12:31:01;;;;;;;24.75;13.23;;;;;;;;;;4958857;28;19922;-85
2023/07/28 12:33:31;;;;;;;24.50;11.93;;;;;;;;;;4957193;28;20497;-87
2023/07/28 12:36:06;;;;;;;20.50;11.13;;;;;;;;;;4942041;28;20043;-86
2023/07/28 12:38:39;;;;;;;23.60;11.95;;;;;;;;;;4958437;28;20053;-85
2023/07/28 12:41:11;;;;;;;22.27;11.75;;;;;;;;;;4974074;28;20039;-85
2023/07/28 12:43:41;;;;;;;22.17;11.15;;;;;;;;;;4975756;28;20038;-86
2023/07/28 12:46:14;;;;;;;19.73;10.52;;;;;;;;;;4957877;28;20066;-86
2023/07/28 12:48:45;;;;;;;19.60;9.93;;;;;;;;;;4974708;28;20058;-85
2023/07/28 12:51:17;;;;;;;19.02;9.68;;;;;;;;;;4958470;28;20515;-84
2023/07/28 12:53:50;;;;;;;16.35;9.30;;;;;;;;;;4977461;28;20050;-85
2023/07/28 12:56:21;;;;;;;17.83;8.82;;;;;;;;;;4973711;28;20047;-84
2023/07/28 12:58:55;;;;;;;20.90;10.55;;;;;;;;;;4975300;28;20042;-84
2023/07/28 13:01:28;;;;;;;25.08;13.85;;;;;;;;;;4973074;28;20394;-84
2023/07/28 13:03:58;;;;;;;20.30;9.65;;;;;;;;;;4974431;28;20431;-85
2023/07/28 13:06:29;;;;;;;19.27;9.95;;;;;;;;;;4973907;28;20054;-83
2023/07/28 13:08:59;;;;;;;19.67;10.10;;;;;;;;;;4974864;28;20042;-84
2023/07/28 13:11:32;;;;;;;20.48;10.05;;;;;;;;;;4957088;28;20054;-84
2023/07/28 13:14:05;;;;;;;20.63;9.70;;;;;;;;;;4973223;28;20050;-82
2023/07/28 13:16:37;;;;;;;18.17;10.48;;;;;;;;;;4973704;28;20054;-86
2023/07/28 13:19:08;;;;;;;18.98;9.65;;;;;;;;;;4974560;28;20038;-82
2023/07/28 13:21:39;;;;;;;20.73;10.00;;;;;;;;;;4974190;28;20057;-82
2023/07/28 13:24:09;;;;;;;19.58;9.25;;;;;;;;;;4974096;28;20050;-83
2023/07/28 13:26:39;;;;;;;22.00;10.25;;;;;;;;;;4973745;28;20054;-84
2023/07/28 13:29:09;;;;;;;16.10;8.73;;;;;;;;;;4972646;28;20408;-82
2023/07/28 13:31:39;;;;;;;14.95;8.25;;;;;;;;;;4973581;28;20070;-82
2023/07/28 13:34:10;;;;;;;17.15;8.43;;;;;;;;;;4974257;28;20047;-83
2023/07/28 13:36:43;;;;;;;15.95;8.45;;;;;;;;;;4973815;28;20047;-83
2023/07/28 13:39:13;;;;;;;18.00;8.40;;;;;;;;;;4973596;28;20042;-82
2023/07/28 13:41:44;;;;;;;17.17;8.40;;;;;;;;;;4954953;28;20047;-84
2023/07/28 13:44:15;;;;;;;15.20;8.13;;;;;;;;;;4972280;28;20051;-83
2023/07/28 13:46:46;;;;;;;14.32;7.28;;;;;;;;;;4972278;28;20051;-83
2023/07/28 13:49:17;;;;;;;15.30;7.95;;;;;;;;;;4956081;28;20054;-84
2023/07/28 13:51:49;;;;;;;14.43;7.25;;;;;;;;;;4976859;28;20051;-84
2023/07/28 13:54:22;;;;;;;13.55;7.03;;;;;;;;;;4977153;28;20047;-84
2023/07/28 13:56:53;;;;;;;12.60;7.63;;;;;;;;;;4976603;28;20043;-83
2023/07/28 13:59:26;;;;;;;12.00;7.38;;;;;;;;;;4977364;28;20043;-85
2023/07/28 14:01:58;;;;;;;18.20;7.07;;;;;;;;;;4964824;28;20406;-85
2023/07/28 14:04:28;;;;;;;14.55;7.07;;;;;;;;;;4956763;29;20070;-86
2023/07/28 14:07:00;;;;;;;15.48;6.97;;;;;;;;;;4951253;28;20054;-86
2023/07/28 14:09:30;;;;;;;14.27;6.78;;;;;;;;;;4959858;28;20066;-85
2023/07/28 14:12:01;;;;;;;13.88;6.82;;;;;;;;;;4976468;28;20047;-86
2023/07/28 14:14:32;;;;;;;13.48;7.53;;;;;;;;;;4976465;28;20394;-85
2023/07/28 14:17:03;;;;;;;12.88;7.07;;;;;;;;;;4976389;28;20501;-84
2023/07/28 14:19:33;;;;;;;15.60;8.20;;;;;;;;;;4976851;28;20076;-84
2023/07/28 14:22:13;;;;;;;13.63;8.18;;;;;;;;;;4960262;28;20058;-83
2023/07/28 14:24:45;;;;;;;17.05;9.05;;;;;;;;;;4935788;29;20509;-85
2023/07/28 14:27:17;;;;;;;13.93;8.02;;;;;;;;;;4935359;28;20063;-83
2023/07/28 14:29:47;;;;;;;13.38;7.93;;;;;;;;;;4936366;29;20071;-84
2023/07/28 14:32:18;;;;;;;13.00;7.13;;;;;;;;;;4936092;29;20063;-84
2023/07/28 14:34:48;;;;;;;12.88;6.10;;;;;;;;;;4935641;29;20532;-84
2023/07/28 14:37:18;;;;;;;13.77;5.70;;;;;;;;;;4936043;29;20048;-84
2023/07/28 14:39:48;;;;;;;12.15;5.78;;;;;;;;;;4935588;29;20457;-84
2023/07/28 14:42:18;;;;;;;12.35;6.30;;;;;;;;;;4934874;29;20059;-85
2023/07/28 14:44:48;;;;;;;12.27;6.70;;;;;;;;;;4935592;29;20392;-84
2023/07/28 14:47:18;;;;;;;7.90;4.85;;;;;;;;;;4934963;29;20062;-85
2023/07/28 14:49:48;;;;;;;10.25;4.95;;;;;;;;;;4919210;29;20059;-85
2023/07/28 14:52:19;;;;;;;10.43;5.45;;;;;;;;;;4935229;29;20063;-86